Terminal Aerodrome Forecast
Issued by NWS Upton, NY

Home | Current Version | Previous Version | Text Only | Print | Product List | Glossary On
Versions: 1 2 3 4 5 6 7 8 9 10 11 12 13 14 15 16 17 18 19 20 21 22 23 24 25 26 27 28 29 30 31 32 33 34 35 36
416
FTUS41 KOKX 212320
TAFJFK
TAF
KJFK 212320Z 2200/2306 24008KT 4SM BR OVC004
      TEMPO 2200/2204 1SM BR OVC003
     FM220400 VRB02KT 1/2SM FG OVC003
      TEMPO 2209/2212 1/4SM FG OVC002
     FM221400 07006KT 1SM BR OVC006
     FM221600 06008KT 4SM BR SCT006 OVC012
     FM222200 07014G20KT 4SM -RA BR SCT006 OVC010
     FM230300 06022G29KT 3SM -RA BR OVC006=

USA.gov is the U.S. government's official web portal to all federal, state and local government web resources and services.